sensor_id;sensor_type;location;lat;lon;timestamp;P1;durP1;ratioP1;P2;durP2;ratioP2
69841;SDS011;57138;51.326;-0.068;2023-02-26T00:01:01;14.45;;;2.92;;
69841;SDS011;57138;51.326;-0.068;2023-02-26T00:03:27;24.40;;;3.05;;
69841;SDS011;57138;51.326;-0.068;2023-02-26T00:05:53;24.52;;;3.15;;
69841;SDS011;57138;51.326;-0.068;2023-02-26T00:08:18;23.13;;;3.08;;
69841;SDS011;57138;51.326;-0.068;2023-02-26T00:10:43;22.27;;;2.25;;
69841;SDS011;57138;51.326;-0.068;2023-02-26T00:13:10;19.88;;;3.38;;
69841;SDS011;57138;51.326;-0.068;2023-02-26T00:15:36;18.40;;;2.55;;
69841;SDS011;57138;51.326;-0.068;2023-02-26T00:18:05;17.70;;;3.30;;
69841;SDS011;57138;51.326;-0.068;2023-02-26T00:20:35;18.50;;;2.83;;
69841;SDS011;57138;51.326;-0.068;2023-02-26T00:23:00;21.83;;;3.30;;
69841;SDS011;57138;51.326;-0.068;2023-02-26T00:25:26;19.05;;;3.72;;
69841;SDS011;57138;51.326;-0.068;2023-02-26T00:27:52;15.32;;;2.00;;
69841;SDS011;57138;51.326;-0.068;2023-02-26T00:30:17;22.83;;;3.20;;
69841;SDS011;57138;51.326;-0.068;2023-02-26T00:32:43;18.55;;;2.75;;
69841;SDS011;57138;51.326;-0.068;2023-02-26T00:35:11;18.50;;;2.90;;
69841;SDS011;57138;51.326;-0.068;2023-02-26T00:37:46;20.42;;;3.13;;
69841;SDS011;57138;51.326;-0.068;2023-02-26T00:40:29;22.60;;;3.40;;
69841;SDS011;57138;51.326;-0.068;2023-02-26T00:43:27;21.13;;;3.58;;
69841;SDS011;57138;51.326;-0.068;2023-02-26T00:46:05;26.40;;;3.22;;
69841;SDS011;57138;51.326;-0.068;2023-02-26T00:48:52;15.48;;;2.88;;
69841;SDS011;57138;51.326;-0.068;2023-02-26T00:56:48;15.60;;;2.65;;
69841;SDS011;57138;51.326;-0.068;2023-02-26T00:59:14;18.98;;;3.63;;
69841;SDS011;57138;51.326;-0.068;2023-02-26T01:01:40;25.90;;;3.38;;
69841;SDS011;57138;51.326;-0.068;2023-02-26T01:04:06;24.30;;;3.08;;
69841;SDS011;57138;51.326;-0.068;2023-02-26T01:06:33;12.77;;;2.47;;
69841;SDS011;57138;51.326;-0.068;2023-02-26T01:11:38;20.10;;;2.58;;
69841;SDS011;57138;51.326;-0.068;2023-02-26T01:14:04;20.10;;;2.80;;
69841;SDS011;57138;51.326;-0.068;2023-02-26T01:16:31;16.88;;;2.55;;
69841;SDS011;57138;51.326;-0.068;2023-02-26T01:21:43;16.02;;;3.78;;
69841;SDS011;57138;51.326;-0.068;2023-02-26T01:24:14;12.80;;;2.28;;
69841;SDS011;57138;51.326;-0.068;2023-02-26T01:26:42;21.85;;;3.35;;
69841;SDS011;57138;51.326;-0.068;2023-02-26T01:29:07;30.08;;;2.85;;
69841;SDS011;57138;51.326;-0.068;2023-02-26T01:34:18;15.18;;;2.22;;
69841;SDS011;57138;51.326;-0.068;2023-02-26T01:36:53;14.52;;;2.20;;
69841;SDS011;57138;51.326;-0.068;2023-02-26T01:42:08;18.00;;;1.60;;
69841;SDS011;57138;51.326;-0.068;2023-02-26T01:44:46;30.50;;;2.67;;
69841;SDS011;57138;51.326;-0.068;2023-02-26T01:50:07;24.05;;;3.17;;
69841;SDS011;57138;51.326;-0.068;2023-02-26T01:55:13;21.98;;;2.92;;
69841;SDS011;57138;51.326;-0.068;2023-02-26T01:57:40;23.55;;;2.95;;
69841;SDS011;57138;51.326;-0.068;2023-02-26T02:00:06;14.85;;;3.10;;
69841;SDS011;57138;51.326;-0.068;2023-02-26T02:02:32;16.30;;;3.30;;
69841;SDS011;57138;51.326;-0.068;2023-02-26T02:05:00;13.98;;;2.67;;
69841;SDS011;57138;51.326;-0.068;2023-02-26T02:07:28;11.85;;;2.85;;
69841;SDS011;57138;51.326;-0.068;2023-02-26T02:09:54;15.65;;;2.17;;
69841;SDS011;57138;51.326;-0.068;2023-02-26T02:12:54;13.90;;;2.80;;
69841;SDS011;57138;51.326;-0.068;2023-02-26T02:15:24;20.88;;;4.18;;
69841;SDS011;57138;51.326;-0.068;2023-02-26T02:18:01;19.15;;;2.30;;
69841;SDS011;57138;51.326;-0.068;2023-02-26T02:23:36;16.15;;;2.83;;
69841;SDS011;57138;51.326;-0.068;2023-02-26T02:31:59;16.08;;;2.45;;
69841;SDS011;57138;51.326;-0.068;2023-02-26T02:37:23;15.30;;;2.63;;
69841;SDS011;57138;51.326;-0.068;2023-02-26T02:43:07;13.18;;;2.08;;
69841;SDS011;57138;51.326;-0.068;2023-02-26T02:48:30;14.63;;;3.08;;
69841;SDS011;57138;51.326;-0.068;2023-02-26T02:51:00;20.77;;;2.42;;
69841;SDS011;57138;51.326;-0.068;2023-02-26T02:56:07;14.00;;;3.15;;
69841;SDS011;57138;51.326;-0.068;2023-02-26T02:59:38;12.75;;;2.25;;
69841;SDS011;57138;51.326;-0.068;2023-02-26T03:01:37;18.00;;;2.95;;
69841;SDS011;57138;51.326;-0.068;2023-02-26T03:04:08;16.50;;;2.90;;
69841;SDS011;57138;51.326;-0.068;2023-02-26T03:06:36;18.85;;;2.38;;
69841;SDS011;57138;51.326;-0.068;2023-02-26T03:09:03;18.80;;;2.33;;
69841;SDS011;57138;51.326;-0.068;2023-02-26T03:11:29;18.63;;;2.35;;
69841;SDS011;57138;51.326;-0.068;2023-02-26T03:13:56;22.40;;;4.38;;
69841;SDS011;57138;51.326;-0.068;2023-02-26T03:21:48;11.68;;;2.53;;
69841;SDS011;57138;51.326;-0.068;2023-02-26T03:28:03;16.80;;;2.03;;
69841;SDS011;57138;51.326;-0.068;2023-02-26T03:36:59;12.65;;;1.98;;
69841;SDS011;57138;51.326;-0.068;2023-02-26T03:39:39;15.95;;;2.47;;
69841;SDS011;57138;51.326;-0.068;2023-02-26T03:44:58;12.07;;;2.58;;
69841;SDS011;57138;51.326;-0.068;2023-02-26T03:47:25;18.85;;;4.18;;
69841;SDS011;57138;51.326;-0.068;2023-02-26T03:49:54;26.30;;;5.53;;
69841;SDS011;57138;51.326;-0.068;2023-02-26T03:52:24;22.45;;;2.92;;
69841;SDS011;57138;51.326;-0.068;2023-02-26T03:57:21;20.48;;;3.65;;
69841;SDS011;57138;51.326;-0.068;2023-02-26T03:59:46;18.10;;;2.28;;
69841;SDS011;57138;51.326;-0.068;2023-02-26T04:02:21;10.52;;;2.38;;
69841;SDS011;57138;51.326;-0.068;2023-02-26T04:04:58;17.92;;;2.13;;
69841;SDS011;57138;51.326;-0.068;2023-02-26T04:07:30;14.20;;;3.17;;
69841;SDS011;57138;51.326;-0.068;2023-02-26T04:09:59;24.63;;;2.53;;
69841;SDS011;57138;51.326;-0.068;2023-02-26T04:12:29;13.93;;;1.92;;
69841;SDS011;57138;51.326;-0.068;2023-02-26T04:14:54;14.18;;;3.75;;
69841;SDS011;57138;51.326;-0.068;2023-02-26T04:17:21;14.60;;;2.55;;
69841;SDS011;57138;51.326;-0.068;2023-02-26T04:19:46;19.20;;;2.58;;
69841;SDS011;57138;51.326;-0.068;2023-02-26T04:22:12;16.85;;;2.30;;
69841;SDS011;57138;51.326;-0.068;2023-02-26T04:24:38;9.25;;;1.65;;
69841;SDS011;57138;51.326;-0.068;2023-02-26T04:27:03;10.18;;;1.77;;
69841;SDS011;57138;51.326;-0.068;2023-02-26T04:29:29;19.63;;;3.03;;
69841;SDS011;57138;51.326;-0.068;2023-02-26T04:31:54;17.20;;;2.17;;
69841;SDS011;57138;51.326;-0.068;2023-02-26T04:34:20;18.13;;;1.90;;
69841;SDS011;57138;51.326;-0.068;2023-02-26T04:36:45;13.25;;;2.58;;
69841;SDS011;57138;51.326;-0.068;2023-02-26T04:39:10;9.48;;;2.00;;
69841;SDS011;57138;51.326;-0.068;2023-02-26T04:41:37;26.30;;;3.00;;
69841;SDS011;57138;51.326;-0.068;2023-02-26T04:44:03;15.38;;;2.10;;
69841;SDS011;57138;51.326;-0.068;2023-02-26T04:46:29;20.50;;;2.30;;
69841;SDS011;57138;51.326;-0.068;2023-02-26T04:48:55;20.48;;;2.60;;
69841;SDS011;57138;51.326;-0.068;2023-02-26T04:51:21;16.10;;;3.15;;
69841;SDS011;57138;51.326;-0.068;2023-02-26T04:53:47;16.17;;;1.80;;
69841;SDS011;57138;51.326;-0.068;2023-02-26T04:56:12;17.40;;;2.35;;
69841;SDS011;57138;51.326;-0.068;2023-02-26T04:58:38;16.45;;;2.05;;
69841;SDS011;57138;51.326;-0.068;2023-02-26T05:01:03;12.88;;;2.00;;
69841;SDS011;57138;51.326;-0.068;2023-02-26T05:03:29;23.50;;;2.35;;
69841;SDS011;57138;51.326;-0.068;2023-02-26T05:05:55;10.23;;;1.95;;
69841;SDS011;57138;51.326;-0.068;2023-02-26T05:08:21;17.50;;;2.17;;
69841;SDS011;57138;51.326;-0.068;2023-02-26T05:10:46;19.85;;;2.40;;
69841;SDS011;57138;51.326;-0.068;2023-02-26T05:13:12;20.42;;;3.53;;
69841;SDS011;57138;51.326;-0.068;2023-02-26T05:15:37;14.48;;;2.15;;
69841;SDS011;57138;51.326;-0.068;2023-02-26T05:18:03;14.40;;;1.75;;
69841;SDS011;57138;51.326;-0.068;2023-02-26T05:20:28;20.35;;;1.95;;
69841;SDS011;57138;51.326;-0.068;2023-02-26T05:22:53;15.07;;;2.33;;
69841;SDS011;57138;51.326;-0.068;2023-02-26T05:25:19;12.50;;;2.20;;
69841;SDS011;57138;51.326;-0.068;2023-02-26T05:27:44;21.63;;;3.17;;
69841;SDS011;57138;51.326;-0.068;2023-02-26T05:30:11;15.95;;;2.17;;
69841;SDS011;57138;51.326;-0.068;2023-02-26T05:32:39;17.23;;;3.42;;
69841;SDS011;57138;51.326;-0.068;2023-02-26T05:35:04;16.83;;;2.05;;
69841;SDS011;57138;51.326;-0.068;2023-02-26T05:37:30;16.05;;;2.90;;
69841;SDS011;57138;51.326;-0.068;2023-02-26T05:39:55;16.83;;;2.85;;
69841;SDS011;57138;51.326;-0.068;2023-02-26T05:42:21;14.50;;;2.20;;
69841;SDS011;57138;51.326;-0.068;2023-02-26T05:44:46;16.33;;;1.95;;
69841;SDS011;57138;51.326;-0.068;2023-02-26T05:47:12;14.27;;;2.85;;
69841;SDS011;57138;51.326;-0.068;2023-02-26T05:49:37;11.75;;;2.88;;
69841;SDS011;57138;51.326;-0.068;2023-02-26T05:52:02;20.08;;;2.47;;
69841;SDS011;57138;51.326;-0.068;2023-02-26T05:54:29;9.43;;;2.00;;
69841;SDS011;57138;51.326;-0.068;2023-02-26T05:56:54;9.85;;;1.60;;
69841;SDS011;57138;51.326;-0.068;2023-02-26T05:59:20;12.32;;;2.88;;
69841;SDS011;57138;51.326;-0.068;2023-02-26T06:01:46;14.68;;;2.05;;
69841;SDS011;57138;51.326;-0.068;2023-02-26T06:04:11;12.82;;;3.03;;
69841;SDS011;57138;51.326;-0.068;2023-02-26T06:06:37;20.92;;;2.47;;
69841;SDS011;57138;51.326;-0.068;2023-02-26T06:09:02;20.63;;;3.38;;
69841;SDS011;57138;51.326;-0.068;2023-02-26T06:11:28;21.58;;;3.30;;
69841;SDS011;57138;51.326;-0.068;2023-02-26T06:13:54;14.02;;;1.65;;
69841;SDS011;57138;51.326;-0.068;2023-02-26T06:16:20;18.05;;;2.80;;
69841;SDS011;57138;51.326;-0.068;2023-02-26T06:18:46;20.20;;;2.15;;
69841;SDS011;57138;51.326;-0.068;2023-02-26T06:21:12;15.65;;;3.50;;
69841;SDS011;57138;51.326;-0.068;2023-02-26T06:23:37;13.93;;;2.63;;
69841;SDS011;57138;51.326;-0.068;2023-02-26T06:26:03;12.52;;;2.30;;
69841;SDS011;57138;51.326;-0.068;2023-02-26T06:28:29;12.45;;;2.78;;
69841;SDS011;57138;51.326;-0.068;2023-02-26T06:30:54;20.73;;;3.15;;
69841;SDS011;57138;51.326;-0.068;2023-02-26T06:33:22;13.95;;;2.20;;
69841;SDS011;57138;51.326;-0.068;2023-02-26T06:35:48;19.92;;;1.85;;
69841;SDS011;57138;51.326;-0.068;2023-02-26T06:38:14;16.27;;;2.13;;
69841;SDS011;57138;51.326;-0.068;2023-02-26T06:40:40;15.00;;;2.30;;
69841;SDS011;57138;51.326;-0.068;2023-02-26T06:43:05;14.25;;;2.00;;
69841;SDS011;57138;51.326;-0.068;2023-02-26T06:45:31;18.60;;;1.90;;
69841;SDS011;57138;51.326;-0.068;2023-02-26T06:47:56;24.85;;;3.60;;
69841;SDS011;57138;51.326;-0.068;2023-02-26T06:50:22;21.45;;;2.85;;
69841;SDS011;57138;51.326;-0.068;2023-02-26T06:52:47;14.88;;;1.90;;
69841;SDS011;57138;51.326;-0.068;2023-02-26T06:55:12;20.50;;;3.30;;
69841;SDS011;57138;51.326;-0.068;2023-02-26T06:57:38;17.95;;;1.98;;
69841;SDS011;57138;51.326;-0.068;2023-02-26T07:00:04;8.18;;;1.40;;
69841;SDS011;57138;51.326;-0.068;2023-02-26T07:02:30;11.25;;;1.98;;
69841;SDS011;57138;51.326;-0.068;2023-02-26T07:04:55;19.45;;;3.92;;
69841;SDS011;57138;51.326;-0.068;2023-02-26T07:07:22;5.93;;;1.80;;
69841;SDS011;57138;51.326;-0.068;2023-02-26T07:09:48;16.30;;;1.75;;
69841;SDS011;57138;51.326;-0.068;2023-02-26T07:12:13;13.90;;;1.63;;
69841;SDS011;57138;51.326;-0.068;2023-02-26T07:14:39;11.82;;;1.73;;
69841;SDS011;57138;51.326;-0.068;2023-02-26T07:17:07;19.70;;;2.03;;
69841;SDS011;57138;51.326;-0.068;2023-02-26T07:19:32;14.65;;;2.40;;
69841;SDS011;57138;51.326;-0.068;2023-02-26T07:21:58;16.00;;;2.17;;
69841;SDS011;57138;51.326;-0.068;2023-02-26T07:24:23;11.45;;;1.30;;
69841;SDS011;57138;51.326;-0.068;2023-02-26T07:26:49;20.15;;;1.95;;
69841;SDS011;57138;51.326;-0.068;2023-02-26T07:29:15;12.75;;;1.70;;
69841;SDS011;57138;51.326;-0.068;2023-02-26T07:31:40;17.73;;;1.95;;
69841;SDS011;57138;51.326;-0.068;2023-02-26T07:34:05;9.32;;;1.63;;
69841;SDS011;57138;51.326;-0.068;2023-02-26T07:36:31;9.93;;;2.00;;
69841;SDS011;57138;51.326;-0.068;2023-02-26T07:38:57;13.70;;;1.77;;
69841;SDS011;57138;51.326;-0.068;2023-02-26T07:41:22;11.52;;;2.17;;
69841;SDS011;57138;51.326;-0.068;2023-02-26T07:43:47;13.68;;;1.75;;
69841;SDS011;57138;51.326;-0.068;2023-02-26T07:46:13;11.38;;;1.95;;
69841;SDS011;57138;51.326;-0.068;2023-02-26T07:48:38;14.00;;;1.85;;
69841;SDS011;57138;51.326;-0.068;2023-02-26T07:51:05;11.82;;;1.77;;
69841;SDS011;57138;51.326;-0.068;2023-02-26T07:53:31;13.88;;;1.65;;
69841;SDS011;57138;51.326;-0.068;2023-02-26T07:55:57;13.27;;;1.40;;
69841;SDS011;57138;51.326;-0.068;2023-02-26T07:58:22;18.05;;;1.80;;
69841;SDS011;57138;51.326;-0.068;2023-02-26T08:00:48;12.35;;;1.60;;
69841;SDS011;57138;51.326;-0.068;2023-02-26T08:03:13;14.57;;;1.85;;
69841;SDS011;57138;51.326;-0.068;2023-02-26T08:05:39;18.15;;;1.77;;
69841;SDS011;57138;51.326;-0.068;2023-02-26T08:08:05;13.65;;;1.38;;
69841;SDS011;57138;51.326;-0.068;2023-02-26T08:10:30;6.40;;;1.67;;
69841;SDS011;57138;51.326;-0.068;2023-02-26T08:12:55;17.45;;;2.17;;
69841;SDS011;57138;51.326;-0.068;2023-02-26T08:15:21;12.68;;;1.60;;
69841;SDS011;57138;51.326;-0.068;2023-02-26T08:17:46;8.73;;;1.48;;
69841;SDS011;57138;51.326;-0.068;2023-02-26T08:20:12;14.88;;;2.17;;
69841;SDS011;57138;51.326;-0.068;2023-02-26T08:22:39;17.35;;;2.75;;
69841;SDS011;57138;51.326;-0.068;2023-02-26T08:25:05;14.20;;;1.42;;
69841;SDS011;57138;51.326;-0.068;2023-02-26T08:27:31;14.52;;;2.63;;
69841;SDS011;57138;51.326;-0.068;2023-02-26T08:29:57;7.13;;;1.35;;
69841;SDS011;57138;51.326;-0.068;2023-02-26T08:32:23;15.15;;;2.00;;
69841;SDS011;57138;51.326;-0.068;2023-02-26T08:34:51;12.77;;;1.80;;
69841;SDS011;57138;51.326;-0.068;2023-02-26T08:37:16;15.38;;;1.67;;
69841;SDS011;57138;51.326;-0.068;2023-02-26T08:39:42;13.55;;;2.60;;
69841;SDS011;57138;51.326;-0.068;2023-02-26T08:42:07;15.07;;;1.80;;
69841;SDS011;57138;51.326;-0.068;2023-02-26T08:44:33;15.38;;;1.50;;
69841;SDS011;57138;51.326;-0.068;2023-02-26T08:46:59;16.45;;;1.92;;
69841;SDS011;57138;51.326;-0.068;2023-02-26T08:49:24;9.50;;;1.75;;
69841;SDS011;57138;51.326;-0.068;2023-02-26T08:51:50;10.25;;;1.88;;
69841;SDS011;57138;51.326;-0.068;2023-02-26T08:54:16;11.40;;;1.73;;
69841;SDS011;57138;51.326;-0.068;2023-02-26T08:56:43;15.93;;;2.55;;
69841;SDS011;57138;51.326;-0.068;2023-02-26T08:59:09;8.70;;;1.67;;
69841;SDS011;57138;51.326;-0.068;2023-02-26T09:01:36;15.23;;;1.73;;
69841;SDS011;57138;51.326;-0.068;2023-02-26T09:04:01;11.25;;;1.60;;
69841;SDS011;57138;51.326;-0.068;2023-02-26T09:06:27;13.18;;;2.38;;
69841;SDS011;57138;51.326;-0.068;2023-02-26T09:08:52;10.27;;;2.42;;
69841;SDS011;57138;51.326;-0.068;2023-02-26T09:11:18;9.18;;;1.55;;
69841;SDS011;57138;51.326;-0.068;2023-02-26T09:13:43;14.55;;;1.70;;
69841;SDS011;57138;51.326;-0.068;2023-02-26T09:16:09;8.30;;;1.45;;
69841;SDS011;57138;51.326;-0.068;2023-02-26T09:18:34;10.93;;;1.40;;
69841;SDS011;57138;51.326;-0.068;2023-02-26T09:21:00;13.27;;;1.30;;
69841;SDS011;57138;51.326;-0.068;2023-02-26T09:23:25;11.95;;;1.83;;
69841;SDS011;57138;51.326;-0.068;2023-02-26T09:25:54;13.88;;;2.50;;
69841;SDS011;57138;51.326;-0.068;2023-02-26T09:28:21;8.52;;;1.73;;
69841;SDS011;57138;51.326;-0.068;2023-02-26T09:30:51;13.32;;;1.70;;
69841;SDS011;57138;51.326;-0.068;2023-02-26T09:33:21;9.80;;;1.88;;
69841;SDS011;57138;51.326;-0.068;2023-02-26T09:35:49;15.93;;;2.13;;
69841;SDS011;57138;51.326;-0.068;2023-02-26T09:38:15;10.65;;;1.60;;
69841;SDS011;57138;51.326;-0.068;2023-02-26T09:41:01;15.45;;;1.85;;
69841;SDS011;57138;51.326;-0.068;2023-02-26T09:46:38;7.15;;;1.17;;
69841;SDS011;57138;51.326;-0.068;2023-02-26T09:52:00;7.57;;;1.13;;
69841;SDS011;57138;51.326;-0.068;2023-02-26T09:54:40;12.55;;;1.63;;
69841;SDS011;57138;51.326;-0.068;2023-02-26T09:57:12;11.18;;;1.25;;
69841;SDS011;57138;51.326;-0.068;2023-02-26T09:59:45;12.02;;;2.10;;
69841;SDS011;57138;51.326;-0.068;2023-02-26T10:02:30;11.85;;;2.55;;
69841;SDS011;57138;51.326;-0.068;2023-02-26T10:08:01;6.95;;;1.30;;
69841;SDS011;57138;51.326;-0.068;2023-02-26T10:10:45;7.57;;;1.10;;
69841;SDS011;57138;51.326;-0.068;2023-02-26T10:13:34;7.72;;;1.30;;
69841;SDS011;57138;51.326;-0.068;2023-02-26T10:16:06;12.63;;;2.53;;
69841;SDS011;57138;51.326;-0.068;2023-02-26T10:18:37;16.02;;;3.17;;
69841;SDS011;57138;51.326;-0.068;2023-02-26T10:21:14;10.02;;;1.60;;
69841;SDS011;57138;51.326;-0.068;2023-02-26T10:23:54;13.45;;;1.58;;
69841;SDS011;57138;51.326;-0.068;2023-02-26T10:26:29;11.13;;;2.72;;
69841;SDS011;57138;51.326;-0.068;2023-02-26T10:34:35;11.40;;;2.17;;
69841;SDS011;57138;51.326;-0.068;2023-02-26T10:39:46;10.82;;;2.03;;
69841;SDS011;57138;51.326;-0.068;2023-02-26T10:42:25;12.38;;;2.05;;
69841;SDS011;57138;51.326;-0.068;2023-02-26T10:46:05;11.80;;;1.27;;
69841;SDS011;57138;51.326;-0.068;2023-02-26T10:50:52;10.55;;;2.17;;
69841;SDS011;57138;51.326;-0.068;2023-02-26T10:53:21;10.38;;;2.22;;
69841;SDS011;57138;51.326;-0.068;2023-02-26T10:55:52;13.63;;;1.27;;
69841;SDS011;57138;51.326;-0.068;2023-02-26T10:58:25;10.52;;;1.27;;
69841;SDS011;57138;51.326;-0.068;2023-02-26T11:00:52;8.68;;;1.77;;
69841;SDS011;57138;51.326;-0.068;2023-02-26T11:03:28;10.52;;;1.20;;
69841;SDS011;57138;51.326;-0.068;2023-02-26T11:05:57;7.93;;;1.20;;
69841;SDS011;57138;51.326;-0.068;2023-02-26T11:08:24;9.30;;;1.52;;
69841;SDS011;57138;51.326;-0.068;2023-02-26T11:10:59;6.18;;;1.45;;
69841;SDS011;57138;51.326;-0.068;2023-02-26T11:13:27;6.32;;;1.48;;
69841;SDS011;57138;51.326;-0.068;2023-02-26T11:15:55;4.93;;;0.63;;
69841;SDS011;57138;51.326;-0.068;2023-02-26T11:18:45;4.05;;;0.50;;
69841;SDS011;57138;51.326;-0.068;2023-02-26T11:21:32;5.25;;;0.77;;
69841;SDS011;57138;51.326;-0.068;2023-02-26T11:24:01;11.38;;;1.00;;
69841;SDS011;57138;51.326;-0.068;2023-02-26T11:26:33;5.25;;;0.85;;
69841;SDS011;57138;51.326;-0.068;2023-02-26T11:29:00;5.88;;;1.00;;
69841;SDS011;57138;51.326;-0.068;2023-02-26T11:31:26;4.65;;;1.30;;
69841;SDS011;57138;51.326;-0.068;2023-02-26T11:33:52;12.25;;;2.15;;
69841;SDS011;57138;51.326;-0.068;2023-02-26T11:36:29;3.78;;;0.60;;
69841;SDS011;57138;51.326;-0.068;2023-02-26T11:38:57;7.75;;;1.38;;
69841;SDS011;57138;51.326;-0.068;2023-02-26T11:41:30;5.10;;;0.82;;
69841;SDS011;57138;51.326;-0.068;2023-02-26T11:44:10;9.73;;;1.52;;
69841;SDS011;57138;51.326;-0.068;2023-02-26T11:46:42;5.47;;;0.90;;
69841;SDS011;57138;51.326;-0.068;2023-02-26T11:49:14;6.70;;;1.45;;
69841;SDS011;57138;51.326;-0.068;2023-02-26T11:51:44;9.43;;;0.80;;
69841;SDS011;57138;51.326;-0.068;2023-02-26T11:54:21;6.35;;;1.75;;
69841;SDS011;57138;51.326;-0.068;2023-02-26T11:56:49;9.27;;;0.80;;
69841;SDS011;57138;51.326;-0.068;2023-02-26T11:59:16;7.35;;;0.85;;
69841;SDS011;57138;51.326;-0.068;2023-02-26T12:01:44;6.00;;;0.80;;
69841;SDS011;57138;51.326;-0.068;2023-02-26T12:04:11;7.00;;;2.00;;
69841;SDS011;57138;51.326;-0.068;2023-02-26T12:06:38;8.57;;;1.05;;
69841;SDS011;57138;51.326;-0.068;2023-02-26T12:09:05;6.30;;;1.50;;
69841;SDS011;57138;51.326;-0.068;2023-02-26T12:16:59;7.72;;;0.90;;
69841;SDS011;57138;51.326;-0.068;2023-02-26T12:22:50;13.48;;;1.40;;
69841;SDS011;57138;51.326;-0.068;2023-02-26T12:31:12;11.38;;;2.05;;
69841;SDS011;57138;51.326;-0.068;2023-02-26T12:40:26;13.43;;;1.15;;
69841;SDS011;57138;51.326;-0.068;2023-02-26T12:56:38;6.63;;;1.08;;
69841;SDS011;57138;51.326;-0.068;2023-02-26T13:04:32;11.38;;;1.50;;
69841;SDS011;57138;51.326;-0.068;2023-02-26T13:07:13;8.27;;;1.17;;
69841;SDS011;57138;51.326;-0.068;2023-02-26T13:15:15;8.02;;;1.02;;
69841;SDS011;57138;51.326;-0.068;2023-02-26T13:18:01;14.93;;;1.25;;
69841;SDS011;57138;51.326;-0.068;2023-02-26T13:20:33;10.82;;;0.85;;
69841;SDS011;57138;51.326;-0.068;2023-02-26T13:23:08;6.25;;;1.00;;
69841;SDS011;57138;51.326;-0.068;2023-02-26T13:25:38;7.55;;;1.35;;
69841;SDS011;57138;51.326;-0.068;2023-02-26T13:28:17;6.72;;;1.60;;
69841;SDS011;57138;51.326;-0.068;2023-02-26T13:30:49;10.18;;;1.15;;
69841;SDS011;57138;51.326;-0.068;2023-02-26T13:33:22;9.35;;;1.13;;
69841;SDS011;57138;51.326;-0.068;2023-02-26T13:35:51;4.53;;;0.88;;
69841;SDS011;57138;51.326;-0.068;2023-02-26T13:38:20;8.68;;;0.95;;
69841;SDS011;57138;51.326;-0.068;2023-02-26T13:40:56;6.22;;;0.80;;
69841;SDS011;57138;51.326;-0.068;2023-02-26T13:46:17;7.82;;;0.80;;
69841;SDS011;57138;51.326;-0.068;2023-02-26T13:51:44;4.30;;;1.10;;
69841;SDS011;57138;51.326;-0.068;2023-02-26T13:56:42;12.77;;;3.28;;
69841;SDS011;57138;51.326;-0.068;2023-02-26T14:09:42;5.13;;;1.00;;
69841;SDS011;57138;51.326;-0.068;2023-02-26T14:14:44;9.77;;;1.25;;
69841;SDS011;57138;51.326;-0.068;2023-02-26T14:20:15;7.70;;;1.77;;
69841;SDS011;57138;51.326;-0.068;2023-02-26T14:22:48;10.13;;;1.55;;
69841;SDS011;57138;51.326;-0.068;2023-02-26T14:30:49;8.38;;;1.73;;
69841;SDS011;57138;51.326;-0.068;2023-02-26T14:33:17;9.32;;;1.42;;
69841;SDS011;57138;51.326;-0.068;2023-02-26T14:35:44;14.48;;;1.23;;
69841;SDS011;57138;51.326;-0.068;2023-02-26T14:38:28;6.70;;;1.75;;
69841;SDS011;57138;51.326;-0.068;2023-02-26T14:43:52;7.60;;;1.85;;
69841;SDS011;57138;51.326;-0.068;2023-02-26T14:46:24;9.30;;;1.95;;
69841;SDS011;57138;51.326;-0.068;2023-02-26T14:48:49;5.13;;;1.20;;
69841;SDS011;57138;51.326;-0.068;2023-02-26T14:56:59;5.80;;;1.15;;
69841;SDS011;57138;51.326;-0.068;2023-02-26T15:18:10;6.68;;;1.35;;
69841;SDS011;57138;51.326;-0.068;2023-02-26T15:23:54;5.30;;;1.08;;
69841;SDS011;57138;51.326;-0.068;2023-02-26T15:26:22;8.35;;;1.45;;
69841;SDS011;57138;51.326;-0.068;2023-02-26T15:28:51;6.25;;;0.90;;
69841;SDS011;57138;51.326;-0.068;2023-02-26T15:31:18;14.55;;;2.22;;
69841;SDS011;57138;51.326;-0.068;2023-02-26T15:33:48;7.57;;;2.08;;
69841;SDS011;57138;51.326;-0.068;2023-02-26T15:36:15;4.72;;;1.63;;
69841;SDS011;57138;51.326;-0.068;2023-02-26T15:38:49;10.68;;;1.42;;
69841;SDS011;57138;51.326;-0.068;2023-02-26T15:41:19;3.50;;;1.25;;
69841;SDS011;57138;51.326;-0.068;2023-02-26T15:43:49;5.32;;;0.80;;
69841;SDS011;57138;51.326;-0.068;2023-02-26T15:46:18;7.85;;;0.93;;
69841;SDS011;57138;51.326;-0.068;2023-02-26T15:48:47;5.35;;;1.05;;
69841;SDS011;57138;51.326;-0.068;2023-02-26T15:51:13;7.03;;;1.25;;
69841;SDS011;57138;51.326;-0.068;2023-02-26T15:53:42;6.38;;;0.90;;
69841;SDS011;57138;51.326;-0.068;2023-02-26T15:56:12;3.25;;;0.60;;
69841;SDS011;57138;51.326;-0.068;2023-02-26T15:59:01;3.88;;;0.60;;
69841;SDS011;57138;51.326;-0.068;2023-02-26T16:01:30;6.38;;;1.15;;
69841;SDS011;57138;51.326;-0.068;2023-02-26T16:03:58;4.55;;;0.75;;
69841;SDS011;57138;51.326;-0.068;2023-02-26T16:06:36;5.57;;;1.20;;
69841;SDS011;57138;51.326;-0.068;2023-02-26T16:09:05;4.85;;;1.00;;
69841;SDS011;57138;51.326;-0.068;2023-02-26T16:11:36;7.30;;;0.90;;
69841;SDS011;57138;51.326;-0.068;2023-02-26T16:14:05;6.75;;;0.77;;
69841;SDS011;57138;51.326;-0.068;2023-02-26T16:16:39;8.75;;;0.80;;
69841;SDS011;57138;51.326;-0.068;2023-02-26T16:19:13;6.47;;;0.80;;
69841;SDS011;57138;51.326;-0.068;2023-02-26T16:21:41;3.15;;;0.88;;
69841;SDS011;57138;51.326;-0.068;2023-02-26T16:24:09;5.00;;;1.10;;
69841;SDS011;57138;51.326;-0.068;2023-02-26T16:26:43;5.88;;;0.70;;
69841;SDS011;57138;51.326;-0.068;2023-02-26T16:29:23;3.28;;;0.63;;
69841;SDS011;57138;51.326;-0.068;2023-02-26T16:31:53;8.57;;;1.88;;
69841;SDS011;57138;51.326;-0.068;2023-02-26T16:35:07;6.93;;;1.10;;
69841;SDS011;57138;51.326;-0.068;2023-02-26T16:37:24;5.93;;;1.45;;
69841;SDS011;57138;51.326;-0.068;2023-02-26T16:45:17;10.57;;;1.55;;
69841;SDS011;57138;51.326;-0.068;2023-02-26T16:47:49;9.68;;;1.23;;
69841;SDS011;57138;51.326;-0.068;2023-02-26T16:50:20;9.25;;;1.63;;
69841;SDS011;57138;51.326;-0.068;2023-02-26T16:52:54;4.07;;;1.38;;
69841;SDS011;57138;51.326;-0.068;2023-02-26T16:55:21;4.93;;;1.00;;
69841;SDS011;57138;51.326;-0.068;2023-02-26T16:57:50;6.38;;;1.70;;
69841;SDS011;57138;51.326;-0.068;2023-02-26T17:00:17;3.72;;;0.80;;
69841;SDS011;57138;51.326;-0.068;2023-02-26T17:03:01;6.60;;;0.95;;
69841;SDS011;57138;51.326;-0.068;2023-02-26T17:05:35;2.38;;;0.88;;
69841;SDS011;57138;51.326;-0.068;2023-02-26T17:08:07;7.97;;;1.55;;
69841;SDS011;57138;51.326;-0.068;2023-02-26T17:10:43;4.55;;;0.90;;
69841;SDS011;57138;51.326;-0.068;2023-02-26T17:13:15;8.02;;;1.27;;
69841;SDS011;57138;51.326;-0.068;2023-02-26T17:15:43;5.43;;;0.90;;
69841;SDS011;57138;51.326;-0.068;2023-02-26T17:18:11;6.75;;;1.20;;
69841;SDS011;57138;51.326;-0.068;2023-02-26T17:20:37;6.75;;;1.00;;
69841;SDS011;57138;51.326;-0.068;2023-02-26T17:23:03;3.42;;;0.93;;
69841;SDS011;57138;51.326;-0.068;2023-02-26T17:25:32;14.50;;;1.65;;
69841;SDS011;57138;51.326;-0.068;2023-02-26T17:28:00;10.77;;;1.80;;
69841;SDS011;57138;51.326;-0.068;2023-02-26T17:30:26;8.88;;;1.35;;
69841;SDS011;57138;51.326;-0.068;2023-02-26T17:32:56;6.53;;;1.52;;
69841;SDS011;57138;51.326;-0.068;2023-02-26T17:35:22;8.60;;;2.40;;
69841;SDS011;57138;51.326;-0.068;2023-02-26T17:37:48;6.63;;;1.60;;
69841;SDS011;57138;51.326;-0.068;2023-02-26T17:40:16;8.15;;;1.90;;
69841;SDS011;57138;51.326;-0.068;2023-02-26T17:42:49;7.57;;;2.63;;
69841;SDS011;57138;51.326;-0.068;2023-02-26T17:45:16;12.00;;;1.70;;
69841;SDS011;57138;51.326;-0.068;2023-02-26T17:47:42;14.07;;;1.55;;
69841;SDS011;57138;51.326;-0.068;2023-02-26T17:50:17;6.47;;;1.55;;
69841;SDS011;57138;51.326;-0.068;2023-02-26T17:52:48;10.10;;;1.48;;